sensor_id;sensor_type;location;lat;lon;timestamp;temperature;humidity
9219;DHT22;4644;48.858;9.184;2023-02-07T00:00:47;0.00;99.90
9219;DHT22;4644;48.858;9.184;2023-02-07T00:03:14;-0.10;99.90
9219;DHT22;4644;48.858;9.184;2023-02-07T00:05:41;-0.10;99.90
9219;DHT22;4644;48.858;9.184;2023-02-07T00:08:08;-0.10;99.90
9219;DHT22;4644;48.858;9.184;2023-02-07T00:10:35;-0.20;99.90
9219;DHT22;4644;48.858;9.184;2023-02-07T00:13:02;-0.20;99.90
9219;DHT22;4644;48.858;9.184;2023-02-07T00:15:30;-0.20;99.90
9219;DHT22;4644;48.858;9.184;2023-02-07T00:17:58;-0.30;99.90
9219;DHT22;4644;48.858;9.184;2023-02-07T00:20:25;-0.30;99.90
9219;DHT22;4644;48.858;9.184;2023-02-07T00:22:52;-0.40;99.90
9219;DHT22;4644;48.858;9.184;2023-02-07T00:25:20;-0.40;99.90
9219;DHT22;4644;48.858;9.184;2023-02-07T00:27:47;-0.50;99.90
9219;DHT22;4644;48.858;9.184;2023-02-07T00:30:15;-0.50;99.90
9219;DHT22;4644;48.858;9.184;2023-02-07T00:32:42;-0.60;99.90
9219;DHT22;4644;48.858;9.184;2023-02-07T00:35:10;-0.60;99.90
9219;DHT22;4644;48.858;9.184;2023-02-07T00:37:37;-0.60;99.90
9219;DHT22;4644;48.858;9.184;2023-02-07T00:40:04;-0.70;99.90
9219;DHT22;4644;48.858;9.184;2023-02-07T00:42:31;-0.70;99.90
9219;DHT22;4644;48.858;9.184;2023-02-07T00:44:58;-0.80;99.90
9219;DHT22;4644;48.858;9.184;2023-02-07T00:47:25;-0.80;99.90
9219;DHT22;4644;48.858;9.184;2023-02-07T00:49:52;-0.80;99.90
9219;DHT22;4644;48.858;9.184;2023-02-07T00:52:20;-0.90;99.90
9219;DHT22;4644;48.858;9.184;2023-02-07T00:54:47;-0.90;99.90
9219;DHT22;4644;48.858;9.184;2023-02-07T00:57:14;-0.90;99.90
9219;DHT22;4644;48.858;9.184;2023-02-07T00:59:41;-0.90;99.90
9219;DHT22;4644;48.858;9.184;2023-02-07T01:02:08;-0.90;99.90
9219;DHT22;4644;48.858;9.184;2023-02-07T01:04:35;-1.00;99.90
9219;DHT22;4644;48.858;9.184;2023-02-07T01:07:02;-1.00;99.90
9219;DHT22;4644;48.858;9.184;2023-02-07T01:09:31;-1.00;99.90
9219;DHT22;4644;48.858;9.184;2023-02-07T01:11:58;-1.10;99.90
9219;DHT22;4644;48.858;9.184;2023-02-07T01:14:25;-1.10;99.90
9219;DHT22;4644;48.858;9.184;2023-02-07T01:16:52;-1.10;99.90
9219;DHT22;4644;48.858;9.184;2023-02-07T01:19:18;-1.10;99.90
9219;DHT22;4644;48.858;9.184;2023-02-07T01:21:45;-1.10;99.90
9219;DHT22;4644;48.858;9.184;2023-02-07T01:24:12;-1.20;99.90
9219;DHT22;4644;48.858;9.184;2023-02-07T01:26:41;-1.20;99.90
9219;DHT22;4644;48.858;9.184;2023-02-07T01:29:09;-1.20;99.90
9219;DHT22;4644;48.858;9.184;2023-02-07T01:31:40;-1.20;99.90
9219;DHT22;4644;48.858;9.184;2023-02-07T01:34:07;-1.20;99.90
9219;DHT22;4644;48.858;9.184;2023-02-07T01:36:33;-1.30;99.90
9219;DHT22;4644;48.858;9.184;2023-02-07T01:39:00;-1.30;99.90
9219;DHT22;4644;48.858;9.184;2023-02-07T01:41:28;-1.40;99.90
9219;DHT22;4644;48.858;9.184;2023-02-07T01:43:59;-1.40;99.90
9219;DHT22;4644;48.858;9.184;2023-02-07T01:46:28;-1.40;99.90
9219;DHT22;4644;48.858;9.184;2023-02-07T01:48:57;-1.40;99.90
9219;DHT22;4644;48.858;9.184;2023-02-07T01:51:29;-1.40;99.90
9219;DHT22;4644;48.858;9.184;2023-02-07T01:53:59;-1.40;99.90
9219;DHT22;4644;48.858;9.184;2023-02-07T01:56:27;-1.40;99.90
9219;DHT22;4644;48.858;9.184;2023-02-07T01:58:56;-1.40;99.90
9219;DHT22;4644;48.858;9.184;2023-02-07T02:01:24;-1.40;99.90
9219;DHT22;4644;48.858;9.184;2023-02-07T02:03:53;-1.40;99.90
9219;DHT22;4644;48.858;9.184;2023-02-07T02:06:21;-1.50;99.90
9219;DHT22;4644;48.858;9.184;2023-02-07T02:08:49;-1.50;99.90
9219;DHT22;4644;48.858;9.184;2023-02-07T02:11:29;-1.50;99.90
9219;DHT22;4644;48.858;9.184;2023-02-07T02:14:09;-1.50;99.90
9219;DHT22;4644;48.858;9.184;2023-02-07T02:16:41;-1.50;99.90
9219;DHT22;4644;48.858;9.184;2023-02-07T02:19:38;-1.50;99.90
9219;DHT22;4644;48.858;9.184;2023-02-07T02:22:38;-1.50;99.90
9219;DHT22;4644;48.858;9.184;2023-02-07T02:31:47;-1.60;99.90
9219;DHT22;4644;48.858;9.184;2023-02-07T02:34:23;-1.70;99.90
9219;DHT22;4644;48.858;9.184;2023-02-07T02:37:00;-1.70;99.90
9219;DHT22;4644;48.858;9.184;2023-02-07T02:39:33;-1.70;99.90
9219;DHT22;4644;48.858;9.184;2023-02-07T02:42:08;-1.70;99.90
9219;DHT22;4644;48.858;9.184;2023-02-07T02:44:40;-1.80;99.90
9219;DHT22;4644;48.858;9.184;2023-02-07T02:47:10;-1.80;99.90
9219;DHT22;4644;48.858;9.184;2023-02-07T02:49:38;-1.80;99.90
9219;DHT22;4644;48.858;9.184;2023-02-07T02:52:07;-1.80;99.90
9219;DHT22;4644;48.858;9.184;2023-02-07T02:54:35;-1.80;99.90
9219;DHT22;4644;48.858;9.184;2023-02-07T03:00:23;-1.90;99.90
9219;DHT22;4644;48.858;9.184;2023-02-07T03:03:12;-1.90;99.90
9219;DHT22;4644;48.858;9.184;2023-02-07T03:05:50;-2.00;99.90
9219;DHT22;4644;48.858;9.184;2023-02-07T03:08:28;-2.00;99.90
9219;DHT22;4644;48.858;9.184;2023-02-07T03:11:06;-2.00;99.90
9219;DHT22;4644;48.858;9.184;2023-02-07T03:13:45;-2.00;99.90
9219;DHT22;4644;48.858;9.184;2023-02-07T03:16:21;-2.00;99.90
9219;DHT22;4644;48.858;9.184;2023-02-07T03:18:55;-2.00;99.90
9219;DHT22;4644;48.858;9.184;2023-02-07T03:21:30;-2.00;99.90
9219;DHT22;4644;48.858;9.184;2023-02-07T03:24:00;-2.10;99.90
9219;DHT22;4644;48.858;9.184;2023-02-07T03:26:29;-2.00;99.90
9219;DHT22;4644;48.858;9.184;2023-02-07T03:28:58;-2.10;99.90
9219;DHT22;4644;48.858;9.184;2023-02-07T03:31:28;-2.10;99.90
9219;DHT22;4644;48.858;9.184;2023-02-07T03:34:01;-2.10;99.90
9219;DHT22;4644;48.858;9.184;2023-02-07T03:36:34;-2.20;99.90
9219;DHT22;4644;48.858;9.184;2023-02-07T03:39:03;-2.20;99.90
9219;DHT22;4644;48.858;9.184;2023-02-07T03:41:34;-2.30;99.90
9219;DHT22;4644;48.858;9.184;2023-02-07T03:44:06;-2.30;99.90
9219;DHT22;4644;48.858;9.184;2023-02-07T03:46:35;-2.30;99.90
9219;DHT22;4644;48.858;9.184;2023-02-07T03:49:05;-2.30;99.90
9219;DHT22;4644;48.858;9.184;2023-02-07T03:51:34;-2.30;99.90
9219;DHT22;4644;48.858;9.184;2023-02-07T03:54:01;-2.30;99.90
9219;DHT22;4644;48.858;9.184;2023-02-07T03:56:29;-2.30;99.90
9219;DHT22;4644;48.858;9.184;2023-02-07T03:58:56;-2.30;99.90
9219;DHT22;4644;48.858;9.184;2023-02-07T04:01:23;-2.30;99.90
9219;DHT22;4644;48.858;9.184;2023-02-07T04:03:49;-2.30;99.90
9219;DHT22;4644;48.858;9.184;2023-02-07T04:06:16;-2.40;99.90
9219;DHT22;4644;48.858;9.184;2023-02-07T04:08:45;-2.40;99.90
9219;DHT22;4644;48.858;9.184;2023-02-07T04:11:12;-2.40;99.90
9219;DHT22;4644;48.858;9.184;2023-02-07T04:13:39;-2.40;99.90
9219;DHT22;4644;48.858;9.184;2023-02-07T04:16:06;-2.50;99.90
9219;DHT22;4644;48.858;9.184;2023-02-07T04:18:33;-2.60;99.90
9219;DHT22;4644;48.858;9.184;2023-02-07T04:21:01;-2.50;99.90
9219;DHT22;4644;48.858;9.184;2023-02-07T04:23:28;-2.60;99.90
9219;DHT22;4644;48.858;9.184;2023-02-07T04:25:56;-2.60;99.90
9219;DHT22;4644;48.858;9.184;2023-02-07T04:28:23;-2.50;99.90
9219;DHT22;4644;48.858;9.184;2023-02-07T04:30:51;-2.50;99.90
9219;DHT22;4644;48.858;9.184;2023-02-07T04:33:18;-2.60;99.90
9219;DHT22;4644;48.858;9.184;2023-02-07T04:35:45;-2.60;99.90
9219;DHT22;4644;48.858;9.184;2023-02-07T04:38:12;-2.60;99.90
9219;DHT22;4644;48.858;9.184;2023-02-07T04:40:39;-2.60;99.90
9219;DHT22;4644;48.858;9.184;2023-02-07T04:43:07;-2.60;99.90
9219;DHT22;4644;48.858;9.184;2023-02-07T04:45:34;-2.50;99.90
9219;DHT22;4644;48.858;9.184;2023-02-07T04:48:01;-2.50;99.90
9219;DHT22;4644;48.858;9.184;2023-02-07T04:50:28;-2.50;99.90
9219;DHT22;4644;48.858;9.184;2023-02-07T04:52:55;-2.50;99.90
9219;DHT22;4644;48.858;9.184;2023-02-07T04:55:22;-2.60;99.90
9219;DHT22;4644;48.858;9.184;2023-02-07T04:57:49;-2.60;99.90
9219;DHT22;4644;48.858;9.184;2023-02-07T05:00:18;-2.60;99.90
9219;DHT22;4644;48.858;9.184;2023-02-07T05:02:45;-2.70;99.90
9219;DHT22;4644;48.858;9.184;2023-02-07T05:05:12;-2.60;99.90
9219;DHT22;4644;48.858;9.184;2023-02-07T05:07:39;-2.60;99.90
9219;DHT22;4644;48.858;9.184;2023-02-07T05:10:06;-2.60;99.90
9219;DHT22;4644;48.858;9.184;2023-02-07T05:12:33;-2.60;99.90
9219;DHT22;4644;48.858;9.184;2023-02-07T05:15:00;-2.60;99.90
9219;DHT22;4644;48.858;9.184;2023-02-07T05:17:28;-2.60;99.90
9219;DHT22;4644;48.858;9.184;2023-02-07T05:19:59;-2.60;99.90
9219;DHT22;4644;48.858;9.184;2023-02-07T05:22:26;-2.70;99.90
9219;DHT22;4644;48.858;9.184;2023-02-07T05:24:53;-2.70;99.90
9219;DHT22;4644;48.858;9.184;2023-02-07T05:27:20;-2.80;99.90
9219;DHT22;4644;48.858;9.184;2023-02-07T05:29:47;-2.80;99.90
9219;DHT22;4644;48.858;9.184;2023-02-07T05:32:14;-2.90;99.90
9219;DHT22;4644;48.858;9.184;2023-02-07T05:35:15;-2.90;99.90
9219;DHT22;4644;48.858;9.184;2023-02-07T05:37:42;-3.00;99.90
9219;DHT22;4644;48.858;9.184;2023-02-07T05:40:09;-3.00;99.90
9219;DHT22;4644;48.858;9.184;2023-02-07T05:42:37;-3.10;99.90
9219;DHT22;4644;48.858;9.184;2023-02-07T05:45:06;-3.10;99.90
9219;DHT22;4644;48.858;9.184;2023-02-07T05:47:33;-3.10;99.90
9219;DHT22;4644;48.858;9.184;2023-02-07T05:50:00;-3.20;99.90
9219;DHT22;4644;48.858;9.184;2023-02-07T05:52:28;-3.20;99.90
9219;DHT22;4644;48.858;9.184;2023-02-07T05:54:55;-3.20;99.90
9219;DHT22;4644;48.858;9.184;2023-02-07T05:57:22;-3.30;99.90
9219;DHT22;4644;48.858;9.184;2023-02-07T05:59:49;-3.30;99.90
9219;DHT22;4644;48.858;9.184;2023-02-07T06:02:16;-3.30;99.90
9219;DHT22;4644;48.858;9.184;2023-02-07T06:04:43;-3.30;99.90
9219;DHT22;4644;48.858;9.184;2023-02-07T06:07:10;-3.20;99.90
9219;DHT22;4644;48.858;9.184;2023-02-07T06:09:38;-3.10;99.90
9219;DHT22;4644;48.858;9.184;2023-02-07T06:12:05;-3.10;99.90
9219;DHT22;4644;48.858;9.184;2023-02-07T06:14:32;-3.10;99.90
9219;DHT22;4644;48.858;9.184;2023-02-07T06:16:59;-3.20;99.90
9219;DHT22;4644;48.858;9.184;2023-02-07T06:19:26;-3.20;99.90
9219;DHT22;4644;48.858;9.184;2023-02-07T06:21:53;-3.20;99.90
9219;DHT22;4644;48.858;9.184;2023-02-07T06:24:20;-3.20;99.90
9219;DHT22;4644;48.858;9.184;2023-02-07T06:26:49;-3.10;99.90
9219;DHT22;4644;48.858;9.184;2023-02-07T06:29:16;-3.10;99.90
9219;DHT22;4644;48.858;9.184;2023-02-07T06:31:43;-3.10;99.90
9219;DHT22;4644;48.858;9.184;2023-02-07T06:34:10;-3.00;99.90
9219;DHT22;4644;48.858;9.184;2023-02-07T06:36:37;-3.00;99.90
9219;DHT22;4644;48.858;9.184;2023-02-07T06:39:04;-3.10;99.90
9219;DHT22;4644;48.858;9.184;2023-02-07T06:41:31;-3.20;99.90
9219;DHT22;4644;48.858;9.184;2023-02-07T06:43:59;-3.10;99.90
9219;DHT22;4644;48.858;9.184;2023-02-07T06:46:26;-3.20;99.90
9219;DHT22;4644;48.858;9.184;2023-02-07T06:48:53;-3.20;99.90
9219;DHT22;4644;48.858;9.184;2023-02-07T06:51:20;-3.10;99.90
9219;DHT22;4644;48.858;9.184;2023-02-07T06:53:47;-3.20;99.90
9219;DHT22;4644;48.858;9.184;2023-02-07T06:56:14;-3.10;99.90
9219;DHT22;4644;48.858;9.184;2023-02-07T06:58:41;-3.00;99.90
9219;DHT22;4644;48.858;9.184;2023-02-07T07:01:09;-3.00;99.90
9219;DHT22;4644;48.858;9.184;2023-02-07T07:03:36;-3.00;99.90
9219;DHT22;4644;48.858;9.184;2023-02-07T07:06:03;-3.00;99.90
9219;DHT22;4644;48.858;9.184;2023-02-07T07:08:30;-3.00;99.90
9219;DHT22;4644;48.858;9.184;2023-02-07T07:10:57;-3.00;99.90
9219;DHT22;4644;48.858;9.184;2023-02-07T07:13:24;-2.90;99.90
9219;DHT22;4644;48.858;9.184;2023-02-07T07:15:51;-2.90;99.90
9219;DHT22;4644;48.858;9.184;2023-02-07T07:18:19;-2.90;99.90
9219;DHT22;4644;48.858;9.184;2023-02-07T07:20:51;-2.90;99.90
9219;DHT22;4644;48.858;9.184;2023-02-07T07:23:18;-2.90;99.90
9219;DHT22;4644;48.858;9.184;2023-02-07T07:25:45;-2.90;99.90
9219;DHT22;4644;48.858;9.184;2023-02-07T07:28:12;-3.00;99.90
9219;DHT22;4644;48.858;9.184;2023-02-07T07:30:39;-2.90;99.90
9219;DHT22;4644;48.858;9.184;2023-02-07T07:33:06;-2.90;99.90
9219;DHT22;4644;48.858;9.184;2023-02-07T07:35:34;-2.90;99.90
9219;DHT22;4644;48.858;9.184;2023-02-07T07:38:01;-2.90;99.90
9219;DHT22;4644;48.858;9.184;2023-02-07T07:40:28;-2.90;99.90
9219;DHT22;4644;48.858;9.184;2023-02-07T07:42:55;-2.90;99.90
9219;DHT22;4644;48.858;9.184;2023-02-07T07:45:22;-2.90;99.90
9219;DHT22;4644;48.858;9.184;2023-02-07T07:47:48;-2.80;99.90
9219;DHT22;4644;48.858;9.184;2023-02-07T07:50:15;-2.70;99.90
9219;DHT22;4644;48.858;9.184;2023-02-07T07:52:44;-2.70;99.90
9219;DHT22;4644;48.858;9.184;2023-02-07T07:55:11;-2.60;99.90
9219;DHT22;4644;48.858;9.184;2023-02-07T07:57:39;-2.60;99.90
9219;DHT22;4644;48.858;9.184;2023-02-07T08:00:07;-2.50;99.90
9219;DHT22;4644;48.858;9.184;2023-02-07T08:02:34;-2.40;99.90
9219;DHT22;4644;48.858;9.184;2023-02-07T08:05:01;-2.30;99.90
9219;DHT22;4644;48.858;9.184;2023-02-07T08:07:28;-2.20;99.90
9219;DHT22;4644;48.858;9.184;2023-02-07T08:09:56;-2.20;99.90
9219;DHT22;4644;48.858;9.184;2023-02-07T08:12:23;-2.10;99.90
9219;DHT22;4644;48.858;9.184;2023-02-07T08:14:50;-2.10;99.90
9219;DHT22;4644;48.858;9.184;2023-02-07T08:17:17;-2.10;99.90
9219;DHT22;4644;48.858;9.184;2023-02-07T08:19:44;-2.10;99.90
9219;DHT22;4644;48.858;9.184;2023-02-07T08:22:11;-2.00;99.90
9219;DHT22;4644;48.858;9.184;2023-02-07T08:24:40;-1.90;99.90
9219;DHT22;4644;48.858;9.184;2023-02-07T08:27:17;-1.80;99.90
9219;DHT22;4644;48.858;9.184;2023-02-07T08:29:44;-1.80;99.90
9219;DHT22;4644;48.858;9.184;2023-02-07T08:32:11;-1.70;99.90
9219;DHT22;4644;48.858;9.184;2023-02-07T08:34:38;-1.60;99.90
9219;DHT22;4644;48.858;9.184;2023-02-07T08:37:06;-1.50;99.90
9219;DHT22;4644;48.858;9.184;2023-02-07T08:39:33;-1.50;99.90
9219;DHT22;4644;48.858;9.184;2023-02-07T08:42:00;-1.40;99.90
9219;DHT22;4644;48.858;9.184;2023-02-07T08:44:29;-1.30;99.90
9219;DHT22;4644;48.858;9.184;2023-02-07T08:46:56;-1.30;99.90
9219;DHT22;4644;48.858;9.184;2023-02-07T08:49:33;-1.20;99.90
9219;DHT22;4644;48.858;9.184;2023-02-07T08:52:03;-1.30;99.90
9219;DHT22;4644;48.858;9.184;2023-02-07T08:54:30;-1.20;99.90
9219;DHT22;4644;48.858;9.184;2023-02-07T08:56:57;-1.00;99.90
9219;DHT22;4644;48.858;9.184;2023-02-07T08:59:24;-0.90;99.90
9219;DHT22;4644;48.858;9.184;2023-02-07T09:01:53;-0.70;99.90
9219;DHT22;4644;48.858;9.184;2023-02-07T09:04:20;-0.60;99.90
9219;DHT22;4644;48.858;9.184;2023-02-07T09:06:47;-0.30;99.90
9219;DHT22;4644;48.858;9.184;2023-02-07T09:09:14;0.10;99.90
9219;DHT22;4644;48.858;9.184;2023-02-07T09:11:41;0.40;99.90
9219;DHT22;4644;48.858;9.184;2023-02-07T09:14:08;0.80;99.90
9219;DHT22;4644;48.858;9.184;2023-02-07T09:16:35;1.20;99.90
9219;DHT22;4644;48.858;9.184;2023-02-07T09:19:04;1.40;99.90
9219;DHT22;4644;48.858;9.184;2023-02-07T09:21:31;1.50;99.90
9219;DHT22;4644;48.858;9.184;2023-02-07T09:23:58;1.80;99.90
9219;DHT22;4644;48.858;9.184;2023-02-07T09:26:25;1.90;99.90
9219;DHT22;4644;48.858;9.184;2023-02-07T09:28:55;1.80;99.90
9219;DHT22;4644;48.858;9.184;2023-02-07T09:31:23;1.80;99.90
9219;DHT22;4644;48.858;9.184;2023-02-07T09:33:50;1.90;99.90
9219;DHT22;4644;48.858;9.184;2023-02-07T09:36:21;2.10;99.90
9219;DHT22;4644;48.858;9.184;2023-02-07T09:38:48;2.20;99.90
9219;DHT22;4644;48.858;9.184;2023-02-07T09:41:25;2.40;99.90
9219;DHT22;4644;48.858;9.184;2023-02-07T09:44:02;2.30;99.90
9219;DHT22;4644;48.858;9.184;2023-02-07T09:46:34;2.60;99.90
9219;DHT22;4644;48.858;9.184;2023-02-07T09:49:05;2.90;99.90
9219;DHT22;4644;48.858;9.184;2023-02-07T09:51:38;3.00;99.90
9219;DHT22;4644;48.858;9.184;2023-02-07T09:54:14;3.10;99.90
9219;DHT22;4644;48.858;9.184;2023-02-07T09:56:43;3.40;99.90
9219;DHT22;4644;48.858;9.184;2023-02-07T09:59:20;3.30;99.90
9219;DHT22;4644;48.858;9.184;2023-02-07T10:01:54;3.40;99.90
9219;DHT22;4644;48.858;9.184;2023-02-07T10:04:28;3.50;99.90
9219;DHT22;4644;48.858;9.184;2023-02-07T10:07:02;3.80;99.90
9219;DHT22;4644;48.858;9.184;2023-02-07T10:09:36;3.60;99.90
9219;DHT22;4644;48.858;9.184;2023-02-07T10:12:21;3.80;99.90
9219;DHT22;4644;48.858;9.184;2023-02-07T10:15:06;3.90;99.90
9219;DHT22;4644;48.858;9.184;2023-02-07T10:17:50;4.10;99.90
9219;DHT22;4644;48.858;9.184;2023-02-07T10:20:32;4.30;99.90
9219;DHT22;4644;48.858;9.184;2023-02-07T10:23:13;4.00;99.90
9219;DHT22;4644;48.858;9.184;2023-02-07T10:25:49;3.80;99.90
9219;DHT22;4644;48.858;9.184;2023-02-07T10:31:24;3.80;99.90
9219;DHT22;4644;48.858;9.184;2023-02-07T10:33:54;4.10;99.90
9219;DHT22;4644;48.858;9.184;2023-02-07T10:36:23;4.10;99.90
9219;DHT22;4644;48.858;9.184;2023-02-07T10:38:58;4.20;99.90
9219;DHT22;4644;48.858;9.184;2023-02-07T10:41:33;4.10;99.90
9219;DHT22;4644;48.858;9.184;2023-02-07T10:44:03;3.80;99.90
9219;DHT22;4644;48.858;9.184;2023-02-07T10:46:31;3.90;99.90
9219;DHT22;4644;48.858;9.184;2023-02-07T10:48:59;3.90;99.90
9219;DHT22;4644;48.858;9.184;2023-02-07T10:51:30;4.10;99.90
9219;DHT22;4644;48.858;9.184;2023-02-07T10:54:08;4.10;99.90
9219;DHT22;4644;48.858;9.184;2023-02-07T10:56:41;4.00;99.90
9219;DHT22;4644;48.858;9.184;2023-02-07T10:59:29;3.80;99.70
9219;DHT22;4644;48.858;9.184;2023-02-07T11:01:57;3.60;99.90
9219;DHT22;4644;48.858;9.184;2023-02-07T11:04:33;4.00;99.90
9219;DHT22;4644;48.858;9.184;2023-02-07T11:07:02;4.10;99.10
9219;DHT22;4644;48.858;9.184;2023-02-07T11:09:30;4.50;99.90
9219;DHT22;4644;48.858;9.184;2023-02-07T11:12:12;4.50;99.50
9219;DHT22;4644;48.858;9.184;2023-02-07T11:14:39;4.10;98.90
9219;DHT22;4644;48.858;9.184;2023-02-07T11:17:06;4.20;99.40
9219;DHT22;4644;48.858;9.184;2023-02-07T11:19:39;4.00;98.80
9219;DHT22;4644;48.858;9.184;2023-02-07T11:22:17;4.10;99.70
9219;DHT22;4644;48.858;9.184;2023-02-07T11:24:47;4.50;99.90
9219;DHT22;4644;48.858;9.184;2023-02-07T11:27:15;4.70;99.10
9219;DHT22;4644;48.858;9.184;2023-02-07T11:29:48;4.70;99.10
9219;DHT22;4644;48.858;9.184;2023-02-07T11:32:16;5.00;99.00
9219;DHT22;4644;48.858;9.184;2023-02-07T11:34:46;4.90;97.80
9219;DHT22;4644;48.858;9.184;2023-02-07T11:37:25;5.00;97.80
9219;DHT22;4644;48.858;9.184;2023-02-07T11:39:55;5.30;99.10
9219;DHT22;4644;48.858;9.184;2023-02-07T11:42:25;5.60;99.20
9219;DHT22;4644;48.858;9.184;2023-02-07T11:44:52;5.60;95.90
9219;DHT22;4644;48.858;9.184;2023-02-07T11:47:23;5.60;96.60
9219;DHT22;4644;48.858;9.184;2023-02-07T11:49:56;5.70;96.20
9219;DHT22;4644;48.858;9.184;2023-02-07T11:52:24;5.90;95.80
9219;DHT22;4644;48.858;9.184;2023-02-07T11:54:56;6.30;95.40
9219;DHT22;4644;48.858;9.184;2023-02-07T11:57:27;6.40;95.10
9219;DHT22;4644;48.858;9.184;2023-02-07T12:00:04;6.40;95.30
9219;DHT22;4644;48.858;9.184;2023-02-07T12:02:33;6.20;95.60
9219;DHT22;4644;48.858;9.184;2023-02-07T12:05:13;5.90;94.50
9219;DHT22;4644;48.858;9.184;2023-02-07T12:07:43;5.90;94.50
9219;DHT22;4644;48.858;9.184;2023-02-07T12:12:46;7.00;95.60
9219;DHT22;4644;48.858;9.184;2023-02-07T12:15:16;7.60;92.70
9219;DHT22;4644;48.858;9.184;2023-02-07T12:17:55;7.80;91.00
9219;DHT22;4644;48.858;9.184;2023-02-07T12:20:25;8.90;90.20
9219;DHT22;4644;48.858;9.184;2023-02-07T12:22:57;9.70;87.40
9219;DHT22;4644;48.858;9.184;2023-02-07T12:25:31;10.40;84.60
9219;DHT22;4644;48.858;9.184;2023-02-07T12:28:09;10.70;79.90
9219;DHT22;4644;48.858;9.184;2023-02-07T12:30:41;11.00;79.80
9219;DHT22;4644;48.858;9.184;2023-02-07T12:33:14;11.10;75.40
9219;DHT22;4644;48.858;9.184;2023-02-07T12:35:57;10.70;74.00
9219;DHT22;4644;48.858;9.184;2023-02-07T12:38:30;10.30;75.80
9219;DHT22;4644;48.858;9.184;2023-02-07T12:41:07;9.70;75.70
9219;DHT22;4644;48.858;9.184;2023-02-07T12:43:43;9.00;74.20
9219;DHT22;4644;48.858;9.184;2023-02-07T12:46:20;8.00;76.90
9219;DHT22;4644;48.858;9.184;2023-02-07T12:49:18;7.50;80.70
9219;DHT22;4644;48.858;9.184;2023-02-07T12:51:54;6.90;82.20
9219;DHT22;4644;48.858;9.184;2023-02-07T12:54:36;6.40;83.60
9219;DHT22;4644;48.858;9.184;2023-02-07T12:57:11;6.10;84.70
9219;DHT22;4644;48.858;9.184;2023-02-07T12:59:49;5.70;84.50
9219;DHT22;4644;48.858;9.184;2023-02-07T13:02:34;5.40;86.70
9219;DHT22;4644;48.858;9.184;2023-02-07T13:05:22;5.20;87.80
9219;DHT22;4644;48.858;9.184;2023-02-07T13:07:56;4.70;89.90
9219;DHT22;4644;48.858;9.184;2023-02-07T13:10:31;4.40;88.00
9219;DHT22;4644;48.858;9.184;2023-02-07T13:13:14;4.30;88.60
9219;DHT22;4644;48.858;9.184;2023-02-07T13:15:48;4.10;90.50
9219;DHT22;4644;48.858;9.184;2023-02-07T13:18:21;4.00;91.30
9219;DHT22;4644;48.858;9.184;2023-02-07T13:20:56;3.90;88.70
9219;DHT22;4644;48.858;9.184;2023-02-07T13:23:26;3.80;88.70
9219;DHT22;4644;48.858;9.184;2023-02-07T13:25:57;3.70;90.10
9219;DHT22;4644;48.858;9.184;2023-02-07T13:28:33;3.70;89.50
9219;DHT22;4644;48.858;9.184;2023-02-07T13:31:03;3.70;89.10
9219;DHT22;4644;48.858;9.184;2023-02-07T13:33:33;3.70;90.50
9219;DHT22;4644;48.858;9.184;2023-02-07T13:36:06;3.70;90.60
9219;DHT22;4644;48.858;9.184;2023-02-07T13:41:32;3.80;91.10
9219;DHT22;4644;48.858;9.184;2023-02-07T13:44:10;3.80;91.60
9219;DHT22;4644;48.858;9.184;2023-02-07T13:47:19;3.80;90.50
9219;DHT22;4644;48.858;9.184;2023-02-07T13:49:51;3.80;90.10
9219;DHT22;4644;48.858;9.184;2023-02-07T13:52:25;3.70;89.40
9219;DHT22;4644;48.858;9.184;2023-02-07T13:55:01;3.80;89.50
9219;DHT22;4644;48.858;9.184;2023-02-07T13:57:39;3.70;89.50
9219;DHT22;4644;48.858;9.184;2023-02-07T14:00:26;3.80;90.00
9219;DHT22;4644;48.858;9.184;2023-02-07T14:02:55;3.80;88.70
9219;DHT22;4644;48.858;9.184;2023-02-07T14:05:25;3.80;89.70
9219;DHT22;4644;48.858;9.184;2023-02-07T14:08:01;3.80;90.00
9219;DHT22;4644;48.858;9.184;2023-02-07T14:10:41;3.80;88.90
9219;DHT22;4644;48.858;9.184;2023-02-07T14:13:31;3.80;89.30
9219;DHT22;4644;48.858;9.184;2023-02-07T14:16:03;3.80;89.20
9219;DHT22;4644;48.858;9.184;2023-02-07T14:18:43;3.80;90.80
9219;DHT22;4644;48.858;9.184;2023-02-07T14:21:30;3.80;90.10
9219;DHT22;4644;48.858;9.184;2023-02-07T14:24:02;3.80;90.10
9219;DHT22;4644;48.858;9.184;2023-02-07T14:29:39;3.90;88.80
9219;DHT22;4644;48.858;9.184;2023-02-07T14:35:02;3.80;90.40
9219;DHT22;4644;48.858;9.184;2023-02-07T14:37:38;3.80;90.60
9219;DHT22;4644;48.858;9.184;2023-02-07T14:40:07;3.70;90.50
9219;DHT22;4644;48.858;9.184;2023-02-07T14:42:54;3.70;90.60
9219;DHT22;4644;48.858;9.184;2023-02-07T14:45:22;3.60;90.70
9219;DHT22;4644;48.858;9.184;2023-02-07T14:47:49;3.60;90.60
9219;DHT22;4644;48.858;9.184;2023-02-07T14:50:20;3.70;90.00
9219;DHT22;4644;48.858;9.184;2023-02-07T14:52:50;3.60;90.30
9219;DHT22;4644;48.858;9.184;2023-02-07T14:55:20;3.60;90.80
9219;DHT22;4644;48.858;9.184;2023-02-07T14:57:55;3.60;90.30
9219;DHT22;4644;48.858;9.184;2023-02-07T15:00:30;3.50;90.10
9219;DHT22;4644;48.858;9.184;2023-02-07T15:03:02;3.50;90.80
9219;DHT22;4644;48.858;9.184;2023-02-07T15:05:46;3.50;90.30
9219;DHT22;4644;48.858;9.184;2023-02-07T15:08:16;3.50;90.70
9219;DHT22;4644;48.858;9.184;2023-02-07T15:10:50;3.50;90.70
9219;DHT22;4644;48.858;9.184;2023-02-07T15:13:22;3.40;90.10
9219;DHT22;4644;48.858;9.184;2023-02-07T15:15:52;3.40;89.70
9219;DHT22;4644;48.858;9.184;2023-02-07T15:18:21;3.30;89.80
9219;DHT22;4644;48.858;9.184;2023-02-07T15:20:52;3.30;88.80
9219;DHT22;4644;48.858;9.184;2023-02-07T15:23:20;3.30;89.40
9219;DHT22;4644;48.858;9.184;2023-02-07T15:25:47;3.30;90.40
9219;DHT22;4644;48.858;9.184;2023-02-07T15:28:22;3.20;90.10
9219;DHT22;4644;48.858;9.184;2023-02-07T15:30:55;3.20;90.10
9219;DHT22;4644;48.858;9.184;2023-02-07T15:33:23;3.20;90.70
9219;DHT22;4644;48.858;9.184;2023-02-07T15:35:54;3.10;90.70
9219;DHT22;4644;48.858;9.184;2023-02-07T15:38:23;3.10;90.70
9219;DHT22;4644;48.858;9.184;2023-02-07T15:40:51;3.10;91.20
9219;DHT22;4644;48.858;9.184;2023-02-07T15:43:30;3.10;90.60
9219;DHT22;4644;48.858;9.184;2023-02-07T15:45:59;3.00;90.50
9219;DHT22;4644;48.858;9.184;2023-02-07T15:48:27;3.00;90.00
9219;DHT22;4644;48.858;9.184;2023-02-07T15:50:58;3.00;90.20
9219;DHT22;4644;48.858;9.184;2023-02-07T15:53:27;2.80;90.10
9219;DHT22;4644;48.858;9.184;2023-02-07T15:55:54;2.80;90.60
9219;DHT22;4644;48.858;9.184;2023-02-07T15:58:24;2.80;88.60
9219;DHT22;4644;48.858;9.184;2023-02-07T16:00:58;2.80;89.30
9219;DHT22;4644;48.858;9.184;2023-02-07T16:03:28;2.70;89.30
9219;DHT22;4644;48.858;9.184;2023-02-07T16:06:10;2.60;90.40
9219;DHT22;4644;48.858;9.184;2023-02-07T16:08:39;2.60;89.60
9219;DHT22;4644;48.858;9.184;2023-02-07T16:11:21;2.50;89.60
9219;DHT22;4644;48.858;9.184;2023-02-07T16:13:51;2.50;90.50
9219;DHT22;4644;48.858;9.184;2023-02-07T16:16:20;2.50;90.00
9219;DHT22;4644;48.858;9.184;2023-02-07T16:18:49;2.40;90.30
9219;DHT22;4644;48.858;9.184;2023-02-07T16:21:20;2.40;90.90
9219;DHT22;4644;48.858;9.184;2023-02-07T16:23:49;2.30;90.80
9219;DHT22;4644;48.858;9.184;2023-02-07T16:26:20;2.30;92.10
9219;DHT22;4644;48.858;9.184;2023-02-07T16:28:49;2.30;91.10
9219;DHT22;4644;48.858;9.184;2023-02-07T16:31:16;2.20;91.70
9219;DHT22;4644;48.858;9.184;2023-02-07T16:33:43;2.10;91.40
9219;DHT22;4644;48.858;9.184;2023-02-07T16:36:13;2.00;91.60
9219;DHT22;4644;48.858;9.184;2023-02-07T16:38:41;2.00;91.60
9219;DHT22;4644;48.858;9.184;2023-02-07T16:41:20;1.90;91.30
9219;DHT22;4644;48.858;9.184;2023-02-07T16:43:48;1.90;92.60
9219;DHT22;4644;48.858;9.184;2023-02-07T16:46:15;1.80;91.80
9219;DHT22;4644;48.858;9.184;2023-02-07T16:48:41;1.80;92.00
9219;DHT22;4644;48.858;9.184;2023-02-07T16:51:14;1.80;91.90
9219;DHT22;4644;48.858;9.184;2023-02-07T16:53:43;1.70;91.60
9219;DHT22;4644;48.858;9.184;2023-02-07T16:56:12;1.70;92.00